createdAt,value
2022-11-01T00:01:40.276Z,27.70
2022-11-01T00:04:08.803Z,28.97
2022-11-01T00:06:36.997Z,27.46
2022-11-01T00:09:05.059Z,25.32
2022-11-01T00:11:32.351Z,28.40
2022-11-01T00:13:59.067Z,28.79
2022-11-01T00:16:26.765Z,26.96
2022-11-01T00:18:53.495Z,28.25
2022-11-01T00:21:20.398Z,26.65
2022-11-01T00:23:47.781Z,26.42
2022-11-01T00:26:18.048Z,26.36
2022-11-01T00:28:45.611Z,25.79
2022-11-01T00:31:13.528Z,31.61
2022-11-01T00:33:40.420Z,29.67
2022-11-01T00:36:08.521Z,27.54
2022-11-01T00:38:36.148Z,27.30
2022-11-01T00:41:04.199Z,26.27
2022-11-01T00:43:35.575Z,28.53
2022-11-01T00:46:02.669Z,29.57
2022-11-01T00:48:29.748Z,32.27
2022-11-01T00:50:57.084Z,26.03
2022-11-01T00:53:23.791Z,25.26
2022-11-01T00:55:50.696Z,30.73
2022-11-01T00:58:17.595Z,34.68
2022-11-01T01:00:44.395Z,31.45
2022-11-01T01:03:11.916Z,30.29
2022-11-01T01:05:38.565Z,29.48
2022-11-01T01:08:05.456Z,32.42
2022-11-01T01:10:32.135Z,30.68
2022-11-01T01:12:59.108Z,32.47
2022-11-01T01:15:26.967Z,33.25
2022-11-01T01:17:53.655Z,31.83
2022-11-01T01:20:21.007Z,28.56
2022-11-01T01:22:48.452Z,29.35
2022-11-01T01:25:15.251Z,30.32
2022-11-01T01:27:42.198Z,28.85
2022-11-01T01:30:09.651Z,29.17
2022-11-01T01:32:36.626Z,29.77
2022-11-01T01:35:03.746Z,29.95
2022-11-01T01:37:30.450Z,29.08
2022-11-01T01:39:57.498Z,28.74
2022-11-01T01:42:29.862Z,30.16
2022-11-01T01:44:57.397Z,28.20
2022-11-01T01:47:27.381Z,28.79
2022-11-01T01:50:05.526Z,28.50
2022-11-01T01:52:39.025Z,30.13
2022-11-01T01:55:08.726Z,28.64
2022-11-01T01:57:36.795Z,27.56
2022-11-01T02:00:05.507Z,27.04
2022-11-01T02:02:38.834Z,27.92
2022-11-01T02:05:33.860Z,29.51
2022-11-01T02:08:01.182Z,29.33
2022-11-01T02:10:30.288Z,27.85
2022-11-01T02:12:58.227Z,28.96
2022-11-01T02:15:34.036Z,27.69
2022-11-01T02:18:21.078Z,26.43
2022-11-01T02:21:16.144Z,26.05
2022-11-01T02:24:20.244Z,26.71
2022-11-01T02:27:00.348Z,26.44
2022-11-01T02:30:04.041Z,26.13
2022-11-01T02:33:03.121Z,24.23
2022-11-01T02:36:16.053Z,25.32
2022-11-01T02:38:50.520Z,25.81
2022-11-01T02:41:43.509Z,26.72
2022-11-01T02:44:15.842Z,29.11
2022-11-01T02:47:03.449Z,27.15
2022-11-01T02:49:41.329Z,25.56
2022-11-01T02:52:31.048Z,29.21
2022-11-01T02:55:01.078Z,24.60
2022-11-01T02:57:39.847Z,24.05
2022-11-01T03:00:46.076Z,25.44
2022-11-01T03:03:46.892Z,24.95
2022-11-01T03:06:24.968Z,25.37
2022-11-01T03:09:00.114Z,25.60
2022-11-01T03:11:37.379Z,26.60
2022-11-01T03:14:10.193Z,29.45
2022-11-01T03:16:52.893Z,30.98
2022-11-01T03:19:39.017Z,27.49
2022-11-01T03:22:10.028Z,30.47
2022-11-01T03:24:59.737Z,29.74
2022-11-01T03:27:39.074Z,27.81
2022-11-01T03:30:09.788Z,28.56
2022-11-01T03:32:49.745Z,30.67
2022-11-01T03:35:21.296Z,30.64
2022-11-01T03:37:50.980Z,30.44
2022-11-01T03:40:18.903Z,30.55
2022-11-01T03:42:49.243Z,30.16
2022-11-01T03:47:51.137Z,29.97
2022-11-01T03:50:19.642Z,31.27
2022-11-01T03:52:47.430Z,31.85
2022-11-01T03:55:18.244Z,29.07
2022-11-01T03:57:47.124Z,29.47
2022-11-01T04:00:22.689Z,29.44
2022-11-01T04:02:50.593Z,27.56
2022-11-01T04:05:18.613Z,27.49
2022-11-01T04:07:45.370Z,26.27
2022-11-01T04:10:14.189Z,25.85
2022-11-01T04:12:44.131Z,25.05
2022-11-01T04:15:29.830Z,24.98
2022-11-01T04:21:14.180Z,28.46
2022-11-01T04:23:42.628Z,24.64
2022-11-01T04:26:13.960Z,26.41
2022-11-01T04:28:40.722Z,25.91
2022-11-01T04:31:07.964Z,27.01
2022-11-01T04:33:34.645Z,24.99
2022-11-01T04:36:06.080Z,24.02
2022-11-01T04:38:32.771Z,25.91
2022-11-01T04:40:59.547Z,25.23
2022-11-01T04:43:26.269Z,24.81
2022-11-01T04:45:58.067Z,24.49
2022-11-01T04:48:26.224Z,24.95
2022-11-01T04:50:53.167Z,23.85
2022-11-01T04:53:19.897Z,24.45
2022-11-01T04:55:46.565Z,25.09
2022-11-01T04:58:14.758Z,25.19
2022-11-01T05:00:44.233Z,23.88
2022-11-01T05:03:11.036Z,24.41
2022-11-01T05:05:39.184Z,24.90
2022-11-01T05:08:11.217Z,23.82
2022-11-01T05:10:40.956Z,25.78
2022-11-01T05:13:09.192Z,24.41
2022-11-01T05:15:40.040Z,24.80
2022-11-01T05:18:14.745Z,26.33
2022-11-01T05:20:41.451Z,26.39
2022-11-01T05:23:09.375Z,27.67
2022-11-01T05:25:38.143Z,28.03
2022-11-01T05:28:08.433Z,28.05
2022-11-01T05:30:37.139Z,24.91
2022-11-01T05:33:06.097Z,26.85
2022-11-01T05:35:34.100Z,26.69
2022-11-01T05:38:02.963Z,26.80
2022-11-01T05:40:30.949Z,28.00
2022-11-01T05:42:59.755Z,24.58
2022-11-01T05:45:26.846Z,25.16
2022-11-01T05:47:53.584Z,24.93
2022-11-01T05:50:20.525Z,25.88
2022-11-01T05:52:47.258Z,25.10
2022-11-01T05:55:15.032Z,29.55
2022-11-01T05:57:41.758Z,28.06
2022-11-01T06:00:09.069Z,27.89
2022-11-01T06:02:38.971Z,27.20
2022-11-01T06:05:06.024Z,26.30
2022-11-01T06:07:35.744Z,27.68
2022-11-01T06:10:02.783Z,27.56
2022-11-01T06:12:29.994Z,30.15
2022-11-01T06:14:56.669Z,27.41
2022-11-01T06:17:23.601Z,26.59
2022-11-01T06:19:50.353Z,25.70
2022-11-01T06:22:17.009Z,26.40
2022-11-01T06:24:43.937Z,28.00
2022-11-01T06:27:12.723Z,27.33
2022-11-01T06:29:40.560Z,26.42
2022-11-01T06:32:07.285Z,27.68
2022-11-01T06:34:34.261Z,25.08
2022-11-01T06:37:01.261Z,26.00
2022-11-01T06:39:29.004Z,26.12
2022-11-01T06:41:55.681Z,25.48
2022-11-01T06:44:22.835Z,29.46
2022-11-01T06:46:49.670Z,29.71
2022-11-01T06:49:19.028Z,26.94
2022-11-01T06:51:46.566Z,26.27
2022-11-01T06:54:14.195Z,26.33
2022-11-01T06:56:41.028Z,25.65
2022-11-01T06:59:08.921Z,26.88
2022-11-01T07:01:35.987Z,26.66
2022-11-01T07:04:02.878Z,27.41
2022-11-01T07:06:30.974Z,29.54
2022-11-01T07:09:01.028Z,28.11
2022-11-01T07:11:31.441Z,26.02
2022-11-01T07:13:59.915Z,26.35
2022-11-01T07:16:26.964Z,26.38
2022-11-01T07:18:54.212Z,25.10
2022-11-01T07:21:21.159Z,23.74
2022-11-01T07:23:47.878Z,25.32
2022-11-01T07:26:15.554Z,26.81
2022-11-01T07:28:42.323Z,26.19
2022-11-01T07:31:09.339Z,26.57
2022-11-01T07:33:36.294Z,27.00
2022-11-01T07:36:04.001Z,26.78
2022-11-01T07:38:31.736Z,26.70
2022-11-01T07:40:58.708Z,26.62
2022-11-01T07:43:27.550Z,25.25
2022-11-01T07:45:59.805Z,27.15
2022-11-01T07:48:26.728Z,22.43
2022-11-01T07:50:57.294Z,24.32
2022-11-01T07:53:24.896Z,27.36
2022-11-01T07:55:52.101Z,27.91
2022-11-01T07:58:18.884Z,25.83
2022-11-01T08:00:46.727Z,28.60
2022-11-01T08:03:16.350Z,26.86
2022-11-01T08:05:44.488Z,24.75
2022-11-01T08:08:12.201Z,25.29
2022-11-01T08:10:39.742Z,23.92
2022-11-01T08:13:14.943Z,27.54
2022-11-01T08:15:41.908Z,24.74
2022-11-01T08:18:08.714Z,25.29
2022-11-01T08:20:35.772Z,24.99
2022-11-01T08:23:03.110Z,23.98
2022-11-01T08:25:31.293Z,23.45
2022-11-01T08:28:06.917Z,25.72
2022-11-01T08:30:34.666Z,23.88
2022-11-01T08:33:03.525Z,23.82
2022-11-01T08:35:32.620Z,22.01
2022-11-01T08:38:00.242Z,20.74
2022-11-01T08:40:31.506Z,21.64
2022-11-01T08:42:58.639Z,22.09
2022-11-01T08:45:26.572Z,21.15
2022-11-01T08:48:01.732Z,20.16
2022-11-01T08:50:29.692Z,19.76
2022-11-01T08:52:57.029Z,19.17
2022-11-01T08:55:23.843Z,20.89
2022-11-01T08:57:50.632Z,19.16
2022-11-01T09:00:18.223Z,16.84
2022-11-01T09:02:45.260Z,19.40
2022-11-01T09:05:12.087Z,20.10
2022-11-01T09:07:39.661Z,19.31
2022-11-01T09:10:07.362Z,20.53
2022-11-01T09:12:34.210Z,21.57
2022-11-01T09:15:01.894Z,20.12
2022-11-01T09:17:28.588Z,20.06
2022-11-01T09:19:55.462Z,23.05
2022-11-01T09:22:22.600Z,21.43
2022-11-01T09:24:49.372Z,22.10
2022-11-01T09:27:17.012Z,20.99
2022-11-01T09:29:46.507Z,19.46
2022-11-01T09:32:16.895Z,21.25
2022-11-01T09:34:44.165Z,21.69
2022-11-01T09:37:11.156Z,21.03
2022-11-01T09:39:37.837Z,23.34
2022-11-01T09:42:28.641Z,19.52
2022-11-01T09:44:59.147Z,21.26
2022-11-01T09:47:28.666Z,21.48
2022-11-01T09:50:06.592Z,20.38
2022-11-01T09:52:33.496Z,20.95
2022-11-01T09:55:01.068Z,19.53
2022-11-01T09:57:43.122Z,21.08
2022-11-01T10:00:13.809Z,22.16
2022-11-01T10:03:06.624Z,21.35
2022-11-01T10:05:52.252Z,21.88
2022-11-01T10:08:35.972Z,21.97
2022-11-01T10:11:21.195Z,23.06
2022-11-01T10:14:18.594Z,23.03
2022-11-01T10:16:59.693Z,24.28
2022-11-01T10:19:33.205Z,21.69
2022-11-01T10:22:06.398Z,21.56
2022-11-01T10:24:48.069Z,21.99
2022-11-01T10:27:18.488Z,20.91
2022-11-01T10:29:48.439Z,22.61
2022-11-01T10:32:31.424Z,22.11
2022-11-01T10:35:03.304Z,23.92
2022-11-01T10:38:11.241Z,23.89
2022-11-01T10:40:51.356Z,22.70
2022-11-01T10:43:22.023Z,22.71
2022-11-01T10:45:51.609Z,20.24
2022-11-01T10:48:47.714Z,24.25
2022-11-01T10:51:20.996Z,21.79
2022-11-01T10:53:57.401Z,22.02
2022-11-01T10:56:37.309Z,21.73
2022-11-01T10:59:10.744Z,22.03
2022-11-01T11:01:44.194Z,21.79
2022-11-01T11:04:17.577Z,21.93
2022-11-01T11:06:44.545Z,20.92
2022-11-01T11:09:34.615Z,21.04
2022-11-01T11:12:09.748Z,23.36
2022-11-01T11:14:37.654Z,21.83
2022-11-01T11:17:14.365Z,21.55
2022-11-01T11:19:43.248Z,21.84
2022-11-01T11:22:11.097Z,22.04
2022-11-01T11:24:40.397Z,21.23
2022-11-01T11:27:26.115Z,23.79
2022-11-01T11:29:54.415Z,21.56
2022-11-01T11:32:25.505Z,22.85
2022-11-01T11:34:59.664Z,21.05
2022-11-01T11:37:30.309Z,21.70
2022-11-01T11:40:19.260Z,20.71
2022-11-01T11:42:50.150Z,23.79
2022-11-01T11:45:22.513Z,20.63
2022-11-01T11:47:49.955Z,20.70
2022-11-01T11:50:19.572Z,23.17
2022-11-01T11:52:49.568Z,24.12
2022-11-01T11:55:28.199Z,21.45
2022-11-01T11:57:56.365Z,22.38
2022-11-01T12:00:27.441Z,24.90
2022-11-01T12:02:54.279Z,20.53
2022-11-01T12:05:23.735Z,21.39
2022-11-01T12:07:53.268Z,21.04
2022-11-01T12:10:36.313Z,20.93
2022-11-01T12:13:36.895Z,20.91
2022-11-01T12:16:20.146Z,22.36
2022-11-01T12:18:50.929Z,21.58
2022-11-01T12:21:22.628Z,20.82
2022-11-01T12:23:53.725Z,21.36
2022-11-01T12:26:23.512Z,20.94
2022-11-01T12:29:02.208Z,19.82
2022-11-01T12:31:31.760Z,21.17
2022-11-01T12:34:13.198Z,20.29
2022-11-01T12:36:50.858Z,20.39
2022-11-01T12:39:55.710Z,19.70
2022-11-01T12:42:28.801Z,20.38
2022-11-01T12:45:10.170Z,21.78
2022-11-01T12:47:50.594Z,20.98
2022-11-01T12:50:22.193Z,22.66
2022-11-01T12:52:55.248Z,22.09
2022-11-01T12:55:37.399Z,20.55
2022-11-01T12:58:05.496Z,20.64
2022-11-01T13:00:49.127Z,21.19
2022-11-01T13:03:48.900Z,21.30
2022-11-01T13:06:35.807Z,19.71
2022-11-01T13:09:05.821Z,21.10
2022-11-01T13:12:12.565Z,20.41
2022-11-01T13:15:04.071Z,20.35
2022-11-01T13:17:44.889Z,20.52
2022-11-01T13:20:33.010Z,20.75
2022-11-01T13:23:16.939Z,18.62
2022-11-01T13:26:12.447Z,19.26
2022-11-01T13:28:39.156Z,21.68
2022-11-01T13:31:16.584Z,19.43
2022-11-01T13:34:21.582Z,19.51
2022-11-01T13:37:04.731Z,19.97
2022-11-01T13:40:09.917Z,20.02
2022-11-01T13:42:42.338Z,20.44
2022-11-01T13:45:22.399Z,19.38
2022-11-01T13:47:55.546Z,20.33
2022-11-01T13:50:40.568Z,20.19
2022-11-01T13:53:31.185Z,20.30
2022-11-01T13:56:03.551Z,21.20
2022-11-01T13:58:33.577Z,20.11
2022-11-01T14:01:37.304Z,19.72
2022-11-01T14:04:06.912Z,20.29
2022-11-01T14:06:37.904Z,20.78
2022-11-01T14:09:30.070Z,21.08
2022-11-01T14:11:58.672Z,20.65
2022-11-01T14:14:31.576Z,20.23
2022-11-01T14:17:16.562Z,20.40
2022-11-01T14:19:45.026Z,21.72
2022-11-01T14:22:33.785Z,20.42
2022-11-01T14:25:03.745Z,20.05
2022-11-01T14:27:37.232Z,20.69
2022-11-01T14:30:24.503Z,20.62
2022-11-01T14:32:58.217Z,20.63
2022-11-01T14:35:31.098Z,20.75
2022-11-01T14:38:05.522Z,20.94
2022-11-01T14:40:54.681Z,20.95
2022-11-01T14:43:35.344Z,20.13
2022-11-01T14:46:06.433Z,20.65
2022-11-01T14:51:27.207Z,20.93
2022-11-01T14:54:06.694Z,20.94
2022-11-01T14:56:40.924Z,21.10
2022-11-01T15:02:36.993Z,21.55
2022-11-01T15:05:05.365Z,21.67
2022-11-01T15:07:40.505Z,22.11
2022-11-01T15:10:14.389Z,21.69
2022-11-01T15:12:54.885Z,22.86
2022-11-01T15:15:24.743Z,22.58
2022-11-01T15:17:59.177Z,22.90
2022-11-01T15:20:31.947Z,22.52
2022-11-01T15:22:59.696Z,22.65
2022-11-01T15:25:26.789Z,22.83
2022-11-01T15:27:56.217Z,22.45
2022-11-01T15:30:22.889Z,23.81
2022-11-01T15:33:21.046Z,22.63
2022-11-01T15:35:59.588Z,22.06
2022-11-01T15:38:27.649Z,21.50
2022-11-01T15:40:55.226Z,23.24
2022-11-01T15:43:27.421Z,21.85
2022-11-01T15:46:00.864Z,24.95
2022-11-01T15:48:32.592Z,23.22
2022-11-01T15:51:08.992Z,21.97
2022-11-01T15:53:38.759Z,23.49
2022-11-01T15:56:19.928Z,22.16
2022-11-01T15:58:57.533Z,22.80
2022-11-01T16:01:25.222Z,22.85
2022-11-01T16:04:06.282Z,22.40
2022-11-01T16:06:41.007Z,22.03
2022-11-01T16:09:29.552Z,22.20
2022-11-01T16:11:59.442Z,21.78
2022-11-01T16:14:37.246Z,21.49
2022-11-01T16:17:26.832Z,21.08
2022-11-01T16:19:53.856Z,22.49
2022-11-01T16:22:36.712Z,22.59
2022-11-01T16:25:11.960Z,21.14
2022-11-01T16:27:54.824Z,21.01
2022-11-01T16:30:47.256Z,22.24
2022-11-01T16:33:30.927Z,22.48
2022-11-01T16:36:20.723Z,21.66
2022-11-01T16:38:52.658Z,21.62
2022-11-01T16:41:45.648Z,21.29
2022-11-01T16:44:16.066Z,21.06
2022-11-01T16:46:42.947Z,23.75
2022-11-01T16:49:27.228Z,24.37
2022-11-01T16:51:56.455Z,22.80
2022-11-01T16:54:24.808Z,21.85
2022-11-01T16:56:55.075Z,22.13
2022-11-01T16:59:34.290Z,21.62
2022-11-01T17:02:11.497Z,21.65
2022-11-01T17:04:39.780Z,22.65
2022-11-01T17:07:07.026Z,22.47
2022-11-01T17:09:35.844Z,22.75
2022-11-01T17:12:02.588Z,22.86
2022-11-01T17:14:29.458Z,22.25
2022-11-01T17:16:56.516Z,26.98
2022-11-01T17:19:30.150Z,24.81
2022-11-01T17:22:01.239Z,21.93
2022-11-01T17:24:28.407Z,22.28
2022-11-01T17:26:59.207Z,25.81
2022-11-01T17:29:26.247Z,23.67
2022-11-01T17:31:53.066Z,22.54
2022-11-01T17:34:21.084Z,23.56
2022-11-01T17:36:50.503Z,22.59
2022-11-01T17:39:17.870Z,21.97
2022-11-01T17:41:44.659Z,23.72
2022-11-01T17:44:12.309Z,22.80
2022-11-01T17:46:40.081Z,23.39
2022-11-01T17:49:07.534Z,22.99
2022-11-01T17:51:34.502Z,22.56
2022-11-01T17:54:02.300Z,21.86
2022-11-01T17:56:29.499Z,21.89
2022-11-01T17:58:56.406Z,21.77
2022-11-01T18:01:23.373Z,22.10
2022-11-01T18:03:51.457Z,23.79
2022-11-01T18:06:18.320Z,23.70
2022-11-01T18:08:51.110Z,23.00
2022-11-01T18:11:42.378Z,22.69
2022-11-01T18:14:19.718Z,25.43
2022-11-01T18:16:49.543Z,23.19
2022-11-01T18:19:42.607Z,23.49
2022-11-01T18:22:21.381Z,22.31
2022-11-01T18:25:12.054Z,21.46
2022-11-01T18:27:38.957Z,22.42
2022-11-01T18:30:14.585Z,21.32
2022-11-01T18:32:56.475Z,22.70
2022-11-01T18:35:46.956Z,24.70
2022-11-01T18:38:17.882Z,23.74
2022-11-01T18:40:56.857Z,25.04
2022-11-01T18:43:23.971Z,24.59
2022-11-01T18:46:22.913Z,23.54
2022-11-01T18:48:38.624Z,22.94
2022-11-01T18:51:31.488Z,21.85
2022-11-01T18:54:11.284Z,21.88
2022-11-01T18:56:46.270Z,21.97
2022-11-01T18:59:16.066Z,21.74
2022-11-01T19:01:44.025Z,21.81
2022-11-01T19:04:24.423Z,23.40
2022-11-01T19:06:57.042Z,23.53
2022-11-01T19:09:28.555Z,23.50
2022-11-01T19:12:01.276Z,22.61
2022-11-01T19:14:31.098Z,23.71
2022-11-01T19:16:58.575Z,23.20
2022-11-01T19:19:25.400Z,24.10
2022-11-01T19:21:59.204Z,23.74
2022-11-01T19:24:38.313Z,23.70
2022-11-01T19:27:15.225Z,22.88
2022-11-01T19:29:41.980Z,22.55
2022-11-01T19:32:15.247Z,22.61
2022-11-01T19:34:42.859Z,22.95
2022-11-01T19:37:22.401Z,22.73
2022-11-01T19:39:49.268Z,21.23
2022-11-01T19:42:23.560Z,22.34
2022-11-01T19:45:17.184Z,23.96
2022-11-01T19:47:47.285Z,22.87
2022-11-01T19:50:24.069Z,24.57
2022-11-01T19:52:53.581Z,23.31
2022-11-01T19:55:46.434Z,23.21
2022-11-01T19:58:25.281Z,23.42
2022-11-01T20:00:58.197Z,25.24
2022-11-01T20:03:43.378Z,23.97
2022-11-01T20:06:16.004Z,23.98
2022-11-01T20:08:45.586Z,25.56
2022-11-01T20:11:13.270Z,24.11
2022-11-01T20:13:40.046Z,24.33
2022-11-01T20:16:07.797Z,24.79
2022-11-01T20:18:34.814Z,25.68
2022-11-01T20:21:05.811Z,23.55
2022-11-01T20:23:33.966Z,22.30
2022-11-01T20:26:01.782Z,23.52
2022-11-01T20:28:28.668Z,24.42
2022-11-01T20:30:56.205Z,24.27
2022-11-01T20:33:24.659Z,22.98
2022-11-01T20:35:53.777Z,23.89
2022-11-01T20:40:52.785Z,22.18
2022-11-01T20:43:19.739Z,23.13
2022-11-01T20:45:46.864Z,24.84
2022-11-01T20:48:13.938Z,25.76
2022-11-01T20:50:41.539Z,27.26
2022-11-01T20:53:09.869Z,25.58
2022-11-01T20:55:36.809Z,25.84
2022-11-01T20:58:04.881Z,24.14
2022-11-01T21:00:32.285Z,24.21
2022-11-01T21:03:02.344Z,22.96
2022-11-01T21:05:31.372Z,23.17
2022-11-01T21:08:25.632Z,22.91
2022-11-01T21:11:01.110Z,23.10
2022-11-01T21:13:31.992Z,24.31
2022-11-01T21:16:00.396Z,23.91
2022-11-01T21:18:33.778Z,24.19
2022-11-01T21:21:15.425Z,24.08
2022-11-01T21:23:44.498Z,24.71
2022-11-01T21:26:17.532Z,24.07
2022-11-01T21:28:58.024Z,23.66
2022-11-01T21:31:31.325Z,23.89
2022-11-01T21:34:02.231Z,22.16
2022-11-01T21:36:34.527Z,23.52
2022-11-01T21:39:09.879Z,24.79
2022-11-01T21:41:44.768Z,24.71
2022-11-01T21:44:30.073Z,22.50
2022-11-01T21:47:13.205Z,25.78
2022-11-01T21:49:40.365Z,24.41
2022-11-01T21:54:40.579Z,24.89
2022-11-01T21:57:09.995Z,24.78
2022-11-01T21:59:37.360Z,24.79
2022-11-01T22:02:06.089Z,25.35
2022-11-01T22:04:33.440Z,25.55
2022-11-01T22:07:02.659Z,23.06
2022-11-01T22:09:30.596Z,22.14
2022-11-01T22:11:57.671Z,22.78
2022-11-01T22:14:25.704Z,24.08
2022-11-01T22:16:53.952Z,23.55
2022-11-01T22:19:21.517Z,23.96
2022-11-01T22:21:48.239Z,22.88
2022-11-01T22:24:15.024Z,24.20
2022-11-01T22:26:41.832Z,25.66
2022-11-01T22:29:09.283Z,24.81
2022-11-01T22:31:36.097Z,24.39
2022-11-01T22:34:04.084Z,23.77
2022-11-01T22:36:34.708Z,23.27
2022-11-01T22:39:06.685Z,22.87
2022-11-01T22:41:34.892Z,22.37
2022-11-01T22:44:04.820Z,23.04
2022-11-01T22:46:41.733Z,22.86
2022-11-01T22:49:30.645Z,23.38
2022-11-01T22:52:04.480Z,23.28
2022-11-01T22:54:42.948Z,25.83
2022-11-01T22:57:16.832Z,24.24
2022-11-01T22:59:51.295Z,23.64
2022-11-01T23:02:27.194Z,24.49
2022-11-01T23:05:06.310Z,23.32
2022-11-01T23:07:34.931Z,23.58
2022-11-01T23:10:05.475Z,22.51
2022-11-01T23:12:55.889Z,23.04
2022-11-01T23:15:40.808Z,22.74
2022-11-01T23:18:24.652Z,23.45
2022-11-01T23:21:07.581Z,22.17
2022-11-01T23:23:42.146Z,22.81
2022-11-01T23:26:11.004Z,22.97
2022-11-01T23:28:50.094Z,22.38
2022-11-01T23:31:18.474Z,22.56
2022-11-01T23:33:47.264Z,22.10
2022-11-01T23:36:26.354Z,22.08
2022-11-01T23:38:56.302Z,22.29
2022-11-01T23:41:27.804Z,22.38
2022-11-01T23:43:58.556Z,23.11
2022-11-01T23:46:26.809Z,22.93
2022-11-01T23:49:19.431Z,23.28
2022-11-01T23:51:46.311Z,23.55
2022-11-01T23:54:22.678Z,23.26
2022-11-01T23:56:49.441Z,24.37
2022-11-01T23:59:16.601Z,22.98
